createdAt,value
2017-11-08T00:01:40.602Z,99604.30
2017-11-08T00:04:07.035Z,99590.06
2017-11-08T00:06:33.478Z,99587.67
2017-11-08T00:08:59.917Z,99589.95
2017-11-08T00:11:26.357Z,99584.19
2017-11-08T00:13:53.599Z,99580.17
2017-11-08T00:16:20.030Z,99580.64
2017-11-08T00:18:46.462Z,99587.34
2017-11-08T00:21:12.796Z,99583.08
2017-11-08T00:23:39.242Z,99583.28
2017-11-08T00:26:05.663Z,99584.02
2017-11-08T00:28:32.030Z,99576.80
2017-11-08T00:30:59.353Z,99579.89
2017-11-08T00:33:25.786Z,99578.88
2017-11-08T00:35:52.242Z,99579.34
2017-11-08T00:38:18.656Z,99579.00
2017-11-08T00:40:45.098Z,99578.16
2017-11-08T00:43:11.554Z,99571.44
2017-11-08T00:45:37.958Z,99579.94
2017-11-08T00:48:05.080Z,99580.48
2017-11-08T00:50:31.555Z,99573.98
2017-11-08T00:52:57.932Z,99562.78
2017-11-08T00:55:24.242Z,99563.15
2017-11-08T00:57:50.654Z,99566.55
2017-11-08T01:00:17.076Z,99581.31
2017-11-08T01:02:43.516Z,99578.56
2017-11-08T01:05:10.549Z,99567.92
2017-11-08T01:07:36.932Z,99551.86
2017-11-08T01:10:03.441Z,99550.16
2017-11-08T01:12:29.885Z,99538.92
2017-11-08T01:14:56.411Z,99540.55
2017-11-08T01:17:22.839Z,99529.46
2017-11-08T01:19:49.276Z,99538.91
2017-11-08T01:22:16.424Z,99535.04
2017-11-08T01:24:42.859Z,99534.38
2017-11-08T01:27:09.294Z,99536.95
2017-11-08T01:29:35.626Z,99530.00
2017-11-08T01:32:02.068Z,99521.59
2017-11-08T01:34:28.495Z,99521.73
2017-11-08T01:36:54.939Z,99533.87
2017-11-08T01:39:22.111Z,99547.75
2017-11-08T01:41:48.516Z,99548.88
2017-11-08T01:44:14.952Z,99550.94
2017-11-08T01:46:41.283Z,99553.77
2017-11-08T01:49:07.813Z,99570.19
2017-11-08T01:51:34.255Z,99571.44
2017-11-08T01:54:00.690Z,99555.33
2017-11-08T01:56:27.847Z,99551.07
2017-11-08T01:58:54.275Z,99546.23
2017-11-08T02:01:20.737Z,99558.20
2017-11-08T02:03:47.153Z,99549.45
2017-11-08T02:06:13.589Z,99546.77
2017-11-08T02:08:40.014Z,99548.14
2017-11-08T02:11:06.451Z,99540.59
2017-11-08T02:13:33.600Z,99528.36
2017-11-08T02:16:00.137Z,99527.80
2017-11-08T02:18:26.581Z,99547.19
2017-11-08T02:20:52.941Z,99558.06
2017-11-08T02:23:19.450Z,99537.64
2017-11-08T02:25:45.876Z,99557.95
2017-11-08T02:28:12.310Z,99545.30
2017-11-08T02:30:39.466Z,99543.43
2017-11-08T02:33:05.926Z,99552.16
2017-11-08T02:35:32.435Z,99544.09
2017-11-08T02:37:58.868Z,99538.31
2017-11-08T02:40:25.303Z,99543.43
2017-11-08T02:42:51.674Z,99541.53
2017-11-08T02:45:18.173Z,99544.09
2017-11-08T02:47:45.332Z,99536.70
2017-11-08T02:50:11.768Z,99534.69
2017-11-08T02:52:38.206Z,99525.13
2017-11-08T02:55:04.636Z,99537.37
2017-11-08T02:57:31.062Z,99549.33
2017-11-08T02:59:57.500Z,99548.12
2017-11-08T03:02:23.935Z,99537.36
2017-11-08T03:04:51.195Z,99542.33
2017-11-08T03:07:17.621Z,99546.47
2017-11-08T03:09:44.056Z,99551.33
2017-11-08T03:12:10.498Z,99547.81
2017-11-08T03:14:36.817Z,99558.57
2017-11-08T03:17:03.257Z,99556.70
2017-11-08T03:19:29.588Z,99564.20
2017-11-08T03:21:56.843Z,99549.27
2017-11-08T03:24:23.278Z,99542.13
2017-11-08T03:26:49.749Z,99553.98
2017-11-08T03:29:16.146Z,99563.63
2017-11-08T03:31:42.583Z,99563.59
2017-11-08T03:34:08.893Z,99563.05
2017-11-08T03:36:35.321Z,99562.28
2017-11-08T03:39:02.602Z,99561.71
2017-11-08T03:41:29.046Z,99555.12
2017-11-08T03:43:55.499Z,99558.31
2017-11-08T03:46:21.924Z,99560.84
2017-11-08T03:48:48.372Z,99562.48
2017-11-08T03:51:14.775Z,99572.02
2017-11-08T03:53:41.221Z,99568.91
2017-11-08T03:56:08.362Z,99559.89
2017-11-08T03:58:34.731Z,99561.52
2017-11-08T04:01:01.232Z,99558.96
2017-11-08T04:03:27.671Z,99564.61
2017-11-08T04:05:54.099Z,99552.25
2017-11-08T04:08:20.543Z,99538.57
2017-11-08T04:10:46.909Z,99555.10
2017-11-08T04:13:14.149Z,99551.06
2017-11-08T04:15:40.556Z,99556.55
2017-11-08T04:18:07.000Z,99550.52
2017-11-08T04:20:33.433Z,99546.89
2017-11-08T04:22:59.752Z,99543.93
2017-11-08T04:25:26.201Z,99550.92
2017-11-08T04:27:52.650Z,99551.17
2017-11-08T04:30:19.836Z,99553.59
2017-11-08T04:32:46.323Z,99557.23
2017-11-08T04:35:12.749Z,99561.80
2017-11-08T04:37:39.184Z,99558.69
2017-11-08T04:40:05.622Z,99521.91
2017-11-08T04:42:32.085Z,99547.52
2017-11-08T04:44:58.433Z,99550.63
2017-11-08T04:47:25.753Z,99559.79
2017-11-08T04:49:52.114Z,99555.86
2017-11-08T04:52:18.644Z,99549.01
2017-11-08T04:54:45.049Z,99552.08
2017-11-08T04:57:11.481Z,99554.39
2017-11-08T04:59:37.946Z,99563.65
2017-11-08T05:02:04.484Z,99573.63
2017-11-08T05:04:31.538Z,99581.86
2017-11-08T05:06:57.913Z,99572.69
2017-11-08T05:09:24.355Z,99558.30
2017-11-08T05:11:50.886Z,99564.48
2017-11-08T05:14:17.365Z,99570.26
2017-11-08T05:16:43.779Z,99563.94
2017-11-08T05:19:10.213Z,99545.13
2017-11-08T05:21:37.365Z,99555.75
2017-11-08T05:24:03.798Z,99547.38
2017-11-08T05:26:30.233Z,99538.62
2017-11-08T05:28:56.676Z,99546.58
2017-11-08T05:31:23.074Z,99555.33
2017-11-08T05:33:49.548Z,99548.72
2017-11-08T05:36:15.974Z,99547.53
2017-11-08T05:38:43.134Z,99555.75
2017-11-08T05:41:09.458Z,99553.05
2017-11-08T05:43:35.899Z,99549.14
2017-11-08T05:46:02.326Z,99540.02
2017-11-08T05:48:28.733Z,99543.23
2017-11-08T05:50:55.194Z,99550.75
2017-11-08T05:53:21.629Z,99554.41
2017-11-08T05:55:48.678Z,99554.16
2017-11-08T05:58:15.047Z,99559.16
2017-11-08T06:00:41.555Z,99542.52
2017-11-08T06:03:07.981Z,99567.86
2017-11-08T06:05:34.416Z,99566.97
2017-11-08T06:08:00.786Z,99568.70
2017-11-08T06:10:27.295Z,99566.14
2017-11-08T06:12:54.437Z,99582.02
2017-11-08T06:15:20.872Z,99559.92
2017-11-08T06:17:47.306Z,99574.14
2017-11-08T06:20:13.946Z,99584.59
2017-11-08T06:22:40.389Z,99580.01
2017-11-08T06:25:06.815Z,99572.30
2017-11-08T06:27:33.251Z,99568.37
2017-11-08T06:29:59.787Z,99568.98
2017-11-08T06:32:26.231Z,99568.17
2017-11-08T06:34:52.664Z,99563.46
2017-11-08T06:37:19.100Z,99574.37
2017-11-08T06:39:45.935Z,99577.89
2017-11-08T06:42:12.370Z,99571.63
2017-11-08T06:47:10.547Z,99579.70
2017-11-08T06:49:36.970Z,99579.79
2017-11-08T06:52:03.857Z,99575.44
2017-11-08T06:54:30.245Z,99571.91
2017-11-08T06:56:56.714Z,99573.64
2017-11-08T07:01:54.907Z,99569.61
2017-11-08T07:04:21.351Z,99576.33
2017-11-08T07:06:47.784Z,99580.56
2017-11-08T07:09:14.323Z,99576.45
2017-11-08T07:11:40.870Z,99579.34
2017-11-08T07:14:07.371Z,99575.82
2017-11-08T07:16:34.010Z,99576.27
2017-11-08T07:19:01.075Z,99571.83
2017-11-08T07:21:27.585Z,99567.00
2017-11-08T07:23:54.047Z,99559.80
2017-11-08T07:26:20.893Z,99577.52
2017-11-08T07:28:47.271Z,99576.02
2017-11-08T07:31:13.764Z,99572.97
2017-11-08T07:33:40.617Z,99569.73
2017-11-08T07:36:06.974Z,99576.15
2017-11-08T07:38:33.475Z,99579.88
2017-11-08T07:46:03.401Z,99562.62
2017-11-08T07:48:29.833Z,99561.99
2017-11-08T07:50:56.407Z,99566.02
2017-11-08T07:53:22.878Z,99572.31
2017-11-08T07:55:49.576Z,99567.58
2017-11-08T07:58:16.012Z,99557.95
2017-11-08T08:00:42.549Z,99568.69
2017-11-08T08:03:09.497Z,99570.59
2017-11-08T08:05:36.452Z,99553.32
2017-11-08T08:08:02.878Z,99565.52
2017-11-08T08:10:29.758Z,99568.19
2017-11-08T08:13:00.100Z,99574.10
2017-11-08T08:15:26.575Z,99563.98
2017-11-08T08:17:53.428Z,99566.28
2017-11-08T08:20:19.953Z,99569.70
2017-11-08T08:22:46.409Z,99563.30
2017-11-08T08:25:13.858Z,99565.68
2017-11-08T08:27:40.293Z,99569.08
2017-11-08T08:30:06.629Z,99557.19
2017-11-08T08:32:33.070Z,99552.55
2017-11-08T08:34:59.989Z,99550.91
2017-11-08T08:37:26.450Z,99552.03
2017-11-08T08:39:52.877Z,99549.59
2017-11-08T08:42:19.826Z,99541.02
2017-11-08T08:44:46.374Z,99550.66
2017-11-08T08:47:12.909Z,99551.00
2017-11-08T08:49:39.745Z,99549.59
2017-11-08T08:52:06.428Z,99546.42
2017-11-08T08:54:32.966Z,99488.73
2017-11-08T08:56:59.874Z,99538.64
2017-11-08T08:59:26.412Z,99534.42
2017-11-08T09:01:52.949Z,99529.66
2017-11-08T09:04:19.885Z,99523.11
2017-11-08T09:06:46.431Z,99523.45
2017-11-08T09:09:12.858Z,99529.91
2017-11-08T09:11:39.703Z,99530.46
2017-11-08T09:14:06.149Z,99525.48
2017-11-08T09:16:32.692Z,99519.66
2017-11-08T09:18:59.323Z,99518.86
2017-11-08T09:21:25.850Z,99512.74
2017-11-08T09:23:52.285Z,99501.73
2017-11-08T09:26:18.965Z,99496.05
2017-11-08T09:28:45.394Z,99504.31
2017-11-08T09:31:11.867Z,99501.30
2017-11-08T09:33:38.534Z,99502.37
2017-11-08T09:36:04.871Z,99510.71
2017-11-08T09:38:31.823Z,99487.84
2017-11-08T09:40:58.454Z,99500.86
2017-11-08T09:43:24.821Z,99502.81
2017-11-08T09:45:51.324Z,99494.28
2017-11-08T09:48:18.167Z,99499.86
2017-11-08T09:50:44.641Z,99499.30
2017-11-08T09:53:11.159Z,99491.65
2017-11-08T09:55:38.086Z,99488.95
2017-11-08T09:58:05.443Z,99489.97
2017-11-08T10:00:32.085Z,99484.13
2017-11-08T10:02:58.525Z,99483.43
2017-11-08T10:05:25.360Z,99481.38
2017-11-08T10:07:51.750Z,99472.88
2017-11-08T10:10:18.236Z,99476.66
2017-11-08T10:12:45.185Z,99479.67
2017-11-08T10:15:11.722Z,99468.05
2017-11-08T10:17:38.568Z,99465.41
2017-11-08T10:20:05.748Z,99455.36
2017-11-08T10:22:32.535Z,99450.88
2017-11-08T10:24:59.059Z,99456.53
2017-11-08T10:27:25.534Z,99453.64
2017-11-08T10:29:52.097Z,99444.52
2017-11-08T10:32:18.601Z,99436.21
2017-11-08T10:34:45.006Z,99430.66
2017-11-08T10:37:11.367Z,99433.19
2017-11-08T10:39:38.014Z,99422.66
2017-11-08T10:42:04.406Z,99430.31
2017-11-08T10:44:31.170Z,99425.42
2017-11-08T10:46:58.414Z,99427.88
2017-11-08T10:49:24.890Z,99429.36
2017-11-08T10:51:51.384Z,99420.59
2017-11-08T10:54:18.330Z,99419.68
2017-11-08T10:56:44.798Z,99420.70
2017-11-08T10:59:11.289Z,99417.66
2017-11-08T11:01:38.199Z,99424.92
2017-11-08T11:04:05.191Z,99421.45
2017-11-08T11:06:31.743Z,99419.50
2017-11-08T11:08:58.362Z,99433.38
2017-11-08T11:11:24.872Z,99420.86
2017-11-08T11:13:51.336Z,99414.40
2017-11-08T11:16:18.402Z,99412.38
2017-11-08T11:18:44.859Z,99404.66
2017-11-08T11:21:11.488Z,99406.18
2017-11-08T11:23:38.202Z,99407.67
2017-11-08T11:26:04.640Z,99405.17
2017-11-08T11:28:31.058Z,99391.19
2017-11-08T11:30:57.613Z,99393.11
2017-11-08T11:33:24.047Z,99395.12
2017-11-08T11:35:50.484Z,99399.31
2017-11-08T11:38:17.956Z,99397.73
2017-11-08T11:40:44.693Z,99405.66
2017-11-08T11:43:11.120Z,99406.83
2017-11-08T11:45:37.555Z,99405.85
2017-11-08T11:48:04.102Z,99406.24
2017-11-08T11:50:30.631Z,99400.08
2017-11-08T11:52:56.964Z,99379.02
2017-11-08T11:55:23.810Z,99372.77
2017-11-08T11:57:50.316Z,99361.59
2017-11-08T12:00:16.912Z,99359.59
2017-11-08T12:02:43.559Z,99371.13
2017-11-08T12:05:10.053Z,99366.73
2017-11-08T12:07:36.606Z,99364.34
2017-11-08T12:10:03.446Z,99367.09
2017-11-08T12:12:29.992Z,99364.88
2017-11-08T12:14:56.520Z,99360.16
2017-11-08T12:17:23.384Z,99365.05
2017-11-08T12:19:49.978Z,99356.04
2017-11-08T12:22:16.341Z,99361.45
2017-11-08T12:24:43.190Z,99356.52
2017-11-08T12:27:09.616Z,99362.55
2017-11-08T12:29:36.050Z,99350.77
2017-11-08T12:32:02.940Z,99357.81
2017-11-08T12:34:29.444Z,99354.28
2017-11-08T12:36:55.869Z,99353.20
2017-11-08T12:39:22.715Z,99352.66
2017-11-08T12:41:49.263Z,99351.01
2017-11-08T12:44:15.582Z,99355.13
2017-11-08T12:46:42.530Z,99344.72
2017-11-08T12:49:08.973Z,99337.02
2017-11-08T12:51:35.559Z,99328.03
2017-11-08T12:54:01.977Z,99329.55
2017-11-08T12:56:28.619Z,99328.83
2017-11-08T12:58:55.125Z,99328.35
2017-11-08T13:01:21.686Z,99314.39
2017-11-08T13:03:48.621Z,99327.02
2017-11-08T13:06:15.122Z,99330.03
2017-11-08T13:08:41.574Z,99332.87
2017-11-08T13:11:08.186Z,99336.64
2017-11-08T13:13:34.881Z,99328.77
2017-11-08T13:16:02.232Z,99326.52
2017-11-08T13:18:28.738Z,99322.99
2017-11-08T13:20:55.281Z,99321.88
2017-11-08T13:23:22.263Z,99331.63
2017-11-08T13:25:48.870Z,99338.59
2017-11-08T13:28:15.310Z,99342.48
2017-11-08T13:30:42.046Z,99348.24
2017-11-08T13:33:08.570Z,99350.86
2017-11-08T13:35:35.236Z,99342.92
2017-11-08T13:38:01.964Z,99348.66
2017-11-08T13:40:28.400Z,99349.64
2017-11-08T13:42:54.870Z,99346.30
2017-11-08T13:45:21.373Z,99355.74
2017-11-08T13:47:48.056Z,99368.56
2017-11-08T13:50:14.652Z,99373.52
2017-11-08T13:52:41.301Z,99370.74
2017-11-08T13:55:07.837Z,99368.61
2017-11-08T13:57:34.375Z,99373.65
2017-11-08T14:00:00.905Z,99375.12
2017-11-08T14:02:27.544Z,99375.17
2017-11-08T14:04:53.979Z,99381.39
2017-11-08T14:07:20.414Z,99378.44
2017-11-08T14:09:47.163Z,99375.73
2017-11-08T14:12:13.600Z,99378.86
2017-11-08T14:14:40.038Z,99370.87
2017-11-08T14:17:06.908Z,99378.84
2017-11-08T14:19:33.407Z,99381.68
2017-11-08T14:22:00.157Z,99369.10
2017-11-08T14:24:26.768Z,99365.50
2017-11-08T14:26:53.229Z,99361.86
2017-11-08T14:29:19.659Z,99356.13
2017-11-08T14:31:46.405Z,99355.63
2017-11-08T14:34:12.837Z,99346.02
2017-11-08T14:36:41.937Z,99356.73
2017-11-08T14:39:08.784Z,99347.36
2017-11-08T14:41:35.316Z,99347.56
2017-11-08T14:44:02.157Z,99345.89
2017-11-08T14:46:28.910Z,99343.43
2017-11-08T14:48:55.359Z,99344.91
2017-11-08T14:51:21.870Z,99332.87
2017-11-08T14:53:48.616Z,99346.78
2017-11-08T14:56:15.297Z,99348.27
2017-11-08T14:58:41.763Z,99340.80
2017-11-08T15:01:08.339Z,99328.36
2017-11-08T15:03:34.707Z,99339.45
2017-11-08T15:06:01.165Z,99337.80
2017-11-08T15:08:27.635Z,99346.73
2017-11-08T15:10:54.155Z,99351.72
2017-11-08T15:13:20.606Z,99356.33
2017-11-08T15:15:47.041Z,99350.92
2017-11-08T15:18:13.783Z,99354.32
2017-11-08T15:20:40.339Z,99363.52
2017-11-08T15:23:06.838Z,99361.27
2017-11-08T15:25:33.599Z,99363.75
2017-11-08T15:28:00.136Z,99372.98
2017-11-08T15:30:26.663Z,99379.52
2017-11-08T15:32:53.621Z,99377.39
2017-11-08T15:35:20.064Z,99373.38
2017-11-08T15:37:46.493Z,99372.09
2017-11-08T15:40:13.439Z,99378.09
2017-11-08T15:42:39.943Z,99377.56
2017-11-08T15:45:06.411Z,99371.00
2017-11-08T15:47:33.050Z,99375.86
2017-11-08T15:49:59.586Z,99373.14
2017-11-08T15:52:26.020Z,99376.65
2017-11-08T15:54:52.455Z,99383.14
2017-11-08T15:57:18.893Z,99381.80
2017-11-08T15:59:45.350Z,99377.53
2017-11-08T16:02:11.785Z,99375.67
2017-11-08T16:04:38.243Z,99383.64
2017-11-08T16:07:04.835Z,99380.16
2017-11-08T16:09:31.277Z,99381.82
2017-11-08T16:11:57.600Z,99383.73
2017-11-08T16:14:24.006Z,99387.09
2017-11-08T16:16:51.373Z,99389.66
2017-11-08T16:19:18.416Z,99385.23
2017-11-08T16:21:44.836Z,99382.00
2017-11-08T16:24:11.401Z,99372.05
2017-11-08T16:26:37.852Z,99371.91
2017-11-08T16:29:04.286Z,99375.95
2017-11-08T16:31:30.719Z,99378.83
2017-11-08T16:33:57.153Z,99369.27
2017-11-08T16:36:23.597Z,99368.48
2017-11-08T16:38:49.955Z,99366.50
2017-11-08T16:41:16.424Z,99368.59
2017-11-08T16:43:42.860Z,99367.14
2017-11-08T16:46:09.320Z,99360.37
2017-11-08T16:48:36.169Z,99359.13
2017-11-08T16:51:02.606Z,99362.63
2017-11-08T16:53:29.243Z,99358.64
2017-11-08T16:55:55.678Z,99358.45
2017-11-08T16:58:22.113Z,99349.56
2017-11-08T17:00:48.547Z,99350.84
2017-11-08T17:03:14.982Z,99349.50
2017-11-08T17:05:42.568Z,99345.13
2017-11-08T17:08:08.978Z,99347.59
2017-11-08T17:10:35.413Z,99348.77
2017-11-08T17:13:01.783Z,99341.34
2017-11-08T17:15:28.282Z,99348.61
2017-11-08T17:17:54.646Z,99358.14
2017-11-08T17:20:21.152Z,99367.08
2017-11-08T17:22:48.322Z,99361.55
2017-11-08T17:25:14.746Z,99353.49
2017-11-08T17:27:41.171Z,99360.92
2017-11-08T17:30:07.579Z,99358.66
2017-11-08T17:32:34.047Z,99359.77
2017-11-08T17:35:00.476Z,99364.09
2017-11-08T17:37:26.847Z,99361.15
2017-11-08T17:39:54.061Z,99359.36
2017-11-08T17:42:20.522Z,99364.14
2017-11-08T17:44:46.904Z,99357.27
2017-11-08T17:47:13.300Z,99352.16
2017-11-08T17:49:39.633Z,99348.27
2017-11-08T17:52:06.142Z,99348.25
2017-11-08T17:54:32.566Z,99348.52
2017-11-08T17:56:59.651Z,99355.95
2017-11-08T17:59:26.029Z,99359.08
2017-11-08T18:01:52.489Z,99359.00
2017-11-08T18:04:18.876Z,99355.69
2017-11-08T18:06:45.397Z,99351.73
2017-11-08T18:09:11.791Z,99358.33
2017-11-08T18:11:38.233Z,99361.83
2017-11-08T18:14:05.478Z,99360.37
2017-11-08T18:16:31.809Z,99369.79
2017-11-08T18:18:58.245Z,99362.78
2017-11-08T18:21:24.680Z,99361.05
2017-11-08T18:23:51.114Z,99373.19
2017-11-08T18:26:17.548Z,99362.95
2017-11-08T18:28:43.983Z,99359.72
2017-11-08T18:31:11.245Z,99362.14
2017-11-08T18:33:37.674Z,99360.96
2017-11-08T18:36:04.115Z,99357.06
2017-11-08T18:38:30.540Z,99359.59
2017-11-08T18:40:56.975Z,99359.38
2017-11-08T18:43:23.437Z,99365.45
2017-11-08T18:45:49.768Z,99363.27
2017-11-08T18:48:17.106Z,99361.08
2017-11-08T18:50:43.526Z,99365.14
2017-11-08T18:53:09.976Z,99359.91
2017-11-08T18:55:36.403Z,99359.50
2017-11-08T18:58:02.839Z,99363.11
2017-11-08T19:00:29.281Z,99358.80
2017-11-08T19:02:55.706Z,99357.99
2017-11-08T19:05:22.755Z,99365.52
2017-11-08T19:07:49.092Z,99366.47
2017-11-08T19:10:15.522Z,99367.30
2017-11-08T19:12:41.965Z,99375.93
2017-11-08T19:15:08.401Z,99373.28
2017-11-08T19:17:34.835Z,99364.64
2017-11-08T19:20:01.213Z,99366.91
2017-11-08T19:22:28.422Z,99361.52
2017-11-08T19:24:54.777Z,99363.05
2017-11-08T19:27:21.288Z,99365.16
2017-11-08T19:29:47.725Z,99365.11
2017-11-08T19:32:14.261Z,99376.48
2017-11-08T19:34:40.687Z,99373.55
2017-11-08T19:37:07.122Z,99375.34
2017-11-08T19:39:34.366Z,99374.49
2017-11-08T19:42:00.711Z,99376.98
2017-11-08T19:44:27.173Z,99375.06
2017-11-08T19:46:53.589Z,99369.03
2017-11-08T19:49:20.015Z,99365.49
2017-11-08T19:51:46.391Z,99366.59
2017-11-08T19:54:12.785Z,99358.84
2017-11-08T19:56:40.042Z,99362.20
2017-11-08T19:59:06.468Z,99362.27
2017-11-08T20:01:32.844Z,99363.20
2017-11-08T20:03:59.236Z,99362.41
2017-11-08T20:06:25.669Z,99371.04
2017-11-08T20:08:52.107Z,99377.45
2017-11-08T20:11:18.539Z,99370.58
2017-11-08T20:13:45.731Z,99362.92
2017-11-08T20:16:12.149Z,99361.73
2017-11-08T20:18:38.560Z,99368.57
2017-11-08T20:21:04.995Z,99372.75
2017-11-08T20:23:31.429Z,99376.77
2017-11-08T20:25:57.863Z,99374.89
2017-11-08T20:28:24.298Z,99376.23
2017-11-08T20:30:51.561Z,99375.83
2017-11-08T20:33:17.981Z,99378.80
2017-11-08T20:35:44.427Z,99370.05
2017-11-08T20:38:10.823Z,99367.69
2017-11-08T20:40:37.291Z,99371.62
2017-11-08T20:43:03.735Z,99375.44
2017-11-08T20:45:30.161Z,99376.81
2017-11-08T20:47:57.516Z,99374.59
2017-11-08T20:50:23.952Z,99372.02
2017-11-08T20:52:50.398Z,99367.57
2017-11-08T20:55:16.721Z,99367.47
2017-11-08T20:57:43.157Z,99370.81
2017-11-08T21:00:09.484Z,99356.13
2017-11-08T21:02:35.957Z,99363.70
2017-11-08T21:05:03.173Z,99364.38
2017-11-08T21:07:29.491Z,99359.84
2017-11-08T21:09:55.838Z,99348.22
2017-11-08T21:12:22.215Z,99344.38
2017-11-08T21:14:48.708Z,99352.06
2017-11-08T21:17:15.154Z,99351.50
2017-11-08T21:19:41.471Z,99352.48
2017-11-08T21:22:08.843Z,99354.52
2017-11-08T21:24:35.265Z,99359.09
2017-11-08T21:27:01.702Z,99361.00
2017-11-08T21:29:28.162Z,99358.16
2017-11-08T21:31:54.640Z,99357.62
2017-11-08T21:34:21.106Z,99345.87
2017-11-08T21:36:47.675Z,99338.95
2017-11-08T21:39:14.695Z,99338.39
2017-11-08T21:41:41.138Z,99342.05
2017-11-08T21:44:07.562Z,99334.42
2017-11-08T21:46:33.997Z,99337.17
2017-11-08T21:49:00.388Z,99343.52
2017-11-08T21:51:26.867Z,99339.38
2017-11-08T21:53:53.304Z,99348.44
2017-11-08T21:56:20.558Z,99351.44
2017-11-08T21:58:47.000Z,99350.52
2017-11-08T22:01:13.424Z,99355.14
2017-11-08T22:03:39.860Z,99355.53
2017-11-08T22:06:06.303Z,99353.95
2017-11-08T22:08:32.729Z,99361.37
2017-11-08T22:10:59.098Z,99362.38
2017-11-08T22:13:26.315Z,99362.75
2017-11-08T22:15:52.752Z,99369.77
2017-11-08T22:18:19.184Z,99366.91
2017-11-08T22:20:45.646Z,99367.38
2017-11-08T22:23:12.030Z,99368.80
2017-11-08T22:25:38.486Z,99358.87
2017-11-08T22:28:04.892Z,99362.24
2017-11-08T22:30:32.018Z,99350.14
2017-11-08T22:32:58.517Z,99353.50
2017-11-08T22:35:24.951Z,99350.16
2017-11-08T22:37:51.377Z,99341.84
2017-11-08T22:40:17.813Z,99333.36
2017-11-08T22:42:44.255Z,99311.95
2017-11-08T22:45:10.695Z,99333.27
2017-11-08T22:47:37.833Z,99340.23
2017-11-08T22:50:04.268Z,99320.08
2017-11-08T22:52:30.701Z,99324.83
2017-11-08T22:54:57.145Z,99332.36
2017-11-08T22:57:23.579Z,99321.17
2017-11-08T22:59:50.007Z,99330.18
2017-11-08T23:02:16.409Z,99324.67
2017-11-08T23:04:43.544Z,99324.41
2017-11-08T23:07:10.019Z,99326.40
2017-11-08T23:09:36.436Z,99334.67
2017-11-08T23:12:02.835Z,99318.97
2017-11-08T23:14:29.229Z,99324.43
2017-11-08T23:16:55.597Z,99332.34
2017-11-08T23:19:21.995Z,99332.22
2017-11-08T23:21:49.148Z,99336.88
2017-11-08T23:24:15.481Z,99333.02
2017-11-08T23:26:41.815Z,99334.77
2017-11-08T23:29:08.247Z,99336.38
2017-11-08T23:31:34.579Z,99333.77
2017-11-08T23:34:01.023Z,99338.98
2017-11-08T23:36:27.448Z,99335.06
2017-11-08T23:38:54.702Z,99330.16
2017-11-08T23:41:21.156Z,99334.87
2017-11-08T23:43:47.479Z,99330.83
2017-11-08T23:46:13.911Z,99330.83
2017-11-08T23:48:40.338Z,99332.58
2017-11-08T23:51:06.773Z,99331.74
2017-11-08T23:53:33.217Z,99330.88
2017-11-08T23:56:00.463Z,99332.59
2017-11-08T23:58:26.831Z,99333.53
